sensor_id;sensor_type;location;lat;lon;timestamp;P1;durP1;ratioP1;P2;durP2;ratioP2
75371;SDS011;63956;52.006;5.878;2022-11-20T00:02:03;12.55;;;7.95;;
75371;SDS011;63956;52.006;5.878;2022-11-20T00:04:32;13.02;;;8.15;;
75371;SDS011;63956;52.006;5.878;2022-11-20T00:07:01;15.00;;;9.02;;
75371;SDS011;63956;52.006;5.878;2022-11-20T00:09:30;12.80;;;7.45;;
75371;SDS011;63956;52.006;5.878;2022-11-20T00:12:02;13.85;;;7.57;;
75371;SDS011;63956;52.006;5.878;2022-11-20T00:14:31;12.25;;;7.05;;
75371;SDS011;63956;52.006;5.878;2022-11-20T00:17:00;12.07;;;7.88;;
75371;SDS011;63956;52.006;5.878;2022-11-20T00:19:29;14.80;;;8.88;;
75371;SDS011;63956;52.006;5.878;2022-11-20T00:21:58;11.18;;;7.10;;
75371;SDS011;63956;52.006;5.878;2022-11-20T00:24:27;12.60;;;8.05;;
75371;SDS011;63956;52.006;5.878;2022-11-20T00:26:57;12.73;;;7.95;;
75371;SDS011;63956;52.006;5.878;2022-11-20T00:29:28;13.90;;;8.27;;
75371;SDS011;63956;52.006;5.878;2022-11-20T00:31:57;10.93;;;6.45;;
75371;SDS011;63956;52.006;5.878;2022-11-20T00:34:26;9.80;;;4.80;;
75371;SDS011;63956;52.006;5.878;2022-11-20T00:36:55;12.02;;;7.88;;
75371;SDS011;63956;52.006;5.878;2022-11-20T00:39:24;10.68;;;6.85;;
75371;SDS011;63956;52.006;5.878;2022-11-20T00:41:54;13.63;;;7.40;;
75371;SDS011;63956;52.006;5.878;2022-11-20T00:44:23;15.05;;;8.38;;
75371;SDS011;63956;52.006;5.878;2022-11-20T00:46:54;11.52;;;7.05;;
75371;SDS011;63956;52.006;5.878;2022-11-20T00:49:23;11.32;;;7.18;;
75371;SDS011;63956;52.006;5.878;2022-11-20T00:51:52;13.65;;;8.50;;
75371;SDS011;63956;52.006;5.878;2022-11-20T00:54:22;15.70;;;9.00;;
75371;SDS011;63956;52.006;5.878;2022-11-20T00:56:52;13.50;;;8.00;;
75371;SDS011;63956;52.006;5.878;2022-11-20T00:59:21;13.13;;;8.27;;
75371;SDS011;63956;52.006;5.878;2022-11-20T01:01:50;14.25;;;8.80;;
75371;SDS011;63956;52.006;5.878;2022-11-20T01:04:22;13.13;;;8.23;;
75371;SDS011;63956;52.006;5.878;2022-11-20T01:06:51;12.73;;;7.38;;
75371;SDS011;63956;52.006;5.878;2022-11-20T01:09:20;11.43;;;7.43;;
75371;SDS011;63956;52.006;5.878;2022-11-20T01:11:49;11.88;;;5.78;;
75371;SDS011;63956;52.006;5.878;2022-11-20T01:14:19;11.82;;;7.82;;
75371;SDS011;63956;52.006;5.878;2022-11-20T01:16:49;11.35;;;6.85;;
75371;SDS011;63956;52.006;5.878;2022-11-20T01:19:22;11.70;;;7.72;;
75371;SDS011;63956;52.006;5.878;2022-11-20T01:21:52;11.38;;;8.05;;
75371;SDS011;63956;52.006;5.878;2022-11-20T01:24:22;11.52;;;6.57;;
75371;SDS011;63956;52.006;5.878;2022-11-20T01:26:51;11.00;;;6.90;;
75371;SDS011;63956;52.006;5.878;2022-11-20T01:29:21;11.82;;;4.95;;
75371;SDS011;63956;52.006;5.878;2022-11-20T01:31:52;13.65;;;7.78;;
75371;SDS011;63956;52.006;5.878;2022-11-20T01:36:53;12.50;;;6.18;;
75371;SDS011;63956;52.006;5.878;2022-11-20T01:39:23;11.57;;;7.28;;
75371;SDS011;63956;52.006;5.878;2022-11-20T01:41:54;11.77;;;8.25;;
75371;SDS011;63956;52.006;5.878;2022-11-20T01:44:44;13.18;;;8.27;;
75371;SDS011;63956;52.006;5.878;2022-11-20T01:47:20;11.70;;;7.53;;
75371;SDS011;63956;52.006;5.878;2022-11-20T01:49:55;11.50;;;7.18;;
75371;SDS011;63956;52.006;5.878;2022-11-20T01:52:30;13.75;;;8.65;;
75371;SDS011;63956;52.006;5.878;2022-11-20T01:55:04;12.35;;;7.68;;
75371;SDS011;63956;52.006;5.878;2022-11-20T01:57:35;13.65;;;8.13;;
75371;SDS011;63956;52.006;5.878;2022-11-20T02:00:07;12.07;;;7.55;;
75371;SDS011;63956;52.006;5.878;2022-11-20T02:02:38;9.20;;;6.50;;
75371;SDS011;63956;52.006;5.878;2022-11-20T02:05:14;12.80;;;7.95;;
75371;SDS011;63956;52.006;5.878;2022-11-20T02:10:21;12.85;;;7.60;;
75371;SDS011;63956;52.006;5.878;2022-11-20T02:12:50;12.27;;;7.28;;
75371;SDS011;63956;52.006;5.878;2022-11-20T02:15:32;12.15;;;7.28;;
75371;SDS011;63956;52.006;5.878;2022-11-20T02:18:01;10.35;;;7.15;;
75371;SDS011;63956;52.006;5.878;2022-11-20T02:20:34;12.30;;;7.78;;
75371;SDS011;63956;52.006;5.878;2022-11-20T02:23:03;12.10;;;7.80;;
75371;SDS011;63956;52.006;5.878;2022-11-20T02:25:39;8.38;;;5.60;;
75371;SDS011;63956;52.006;5.878;2022-11-20T02:28:10;13.38;;;8.35;;
75371;SDS011;63956;52.006;5.878;2022-11-20T02:30:40;11.65;;;8.05;;
75371;SDS011;63956;52.006;5.878;2022-11-20T02:33:09;14.10;;;9.30;;
75371;SDS011;63956;52.006;5.878;2022-11-20T02:35:42;13.40;;;8.55;;
75371;SDS011;63956;52.006;5.878;2022-11-20T02:38:12;14.10;;;9.13;;
75371;SDS011;63956;52.006;5.878;2022-11-20T02:40:45;12.90;;;8.25;;
75371;SDS011;63956;52.006;5.878;2022-11-20T02:43:15;15.18;;;8.18;;
75371;SDS011;63956;52.006;5.878;2022-11-20T02:45:44;13.63;;;8.57;;
75371;SDS011;63956;52.006;5.878;2022-11-20T02:48:13;15.63;;;10.80;;
75371;SDS011;63956;52.006;5.878;2022-11-20T02:50:43;14.75;;;8.40;;
75371;SDS011;63956;52.006;5.878;2022-11-20T02:53:12;14.13;;;8.15;;
75371;SDS011;63956;52.006;5.878;2022-11-20T02:55:41;12.73;;;5.93;;
75371;SDS011;63956;52.006;5.878;2022-11-20T02:58:12;14.38;;;9.20;;
75371;SDS011;63956;52.006;5.878;2022-11-20T03:00:41;15.82;;;9.57;;
75371;SDS011;63956;52.006;5.878;2022-11-20T03:03:11;15.38;;;7.50;;
75371;SDS011;63956;52.006;5.878;2022-11-20T03:05:40;13.75;;;10.05;;
75371;SDS011;63956;52.006;5.878;2022-11-20T03:08:09;13.45;;;8.10;;
75371;SDS011;63956;52.006;5.878;2022-11-20T03:10:38;13.70;;;7.72;;
75371;SDS011;63956;52.006;5.878;2022-11-20T03:13:07;12.82;;;8.00;;
75371;SDS011;63956;52.006;5.878;2022-11-20T03:15:39;11.25;;;7.40;;
75371;SDS011;63956;52.006;5.878;2022-11-20T03:18:08;9.70;;;4.28;;
75371;SDS011;63956;52.006;5.878;2022-11-20T03:20:39;11.25;;;7.82;;
75371;SDS011;63956;52.006;5.878;2022-11-20T03:23:08;14.30;;;9.57;;
75371;SDS011;63956;52.006;5.878;2022-11-20T03:25:37;12.02;;;7.20;;
75371;SDS011;63956;52.006;5.878;2022-11-20T03:28:06;12.32;;;7.38;;
75371;SDS011;63956;52.006;5.878;2022-11-20T03:30:35;8.35;;;5.32;;
75371;SDS011;63956;52.006;5.878;2022-11-20T03:33:07;11.90;;;7.95;;
75371;SDS011;63956;52.006;5.878;2022-11-20T03:35:36;9.52;;;3.63;;
75371;SDS011;63956;52.006;5.878;2022-11-20T03:38:05;11.18;;;6.85;;
75371;SDS011;63956;52.006;5.878;2022-11-20T03:40:34;11.63;;;5.30;;
75371;SDS011;63956;52.006;5.878;2022-11-20T03:43:04;9.68;;;6.80;;
75371;SDS011;63956;52.006;5.878;2022-11-20T03:45:33;11.25;;;6.20;;
75371;SDS011;63956;52.006;5.878;2022-11-20T03:48:02;10.38;;;6.60;;
75371;SDS011;63956;52.006;5.878;2022-11-20T03:53:02;13.38;;;5.13;;
75371;SDS011;63956;52.006;5.878;2022-11-20T03:55:32;12.40;;;7.22;;
75371;SDS011;63956;52.006;5.878;2022-11-20T03:58:01;11.88;;;7.25;;
75371;SDS011;63956;52.006;5.878;2022-11-20T04:00:30;11.40;;;7.10;;
75371;SDS011;63956;52.006;5.878;2022-11-20T04:02:59;10.30;;;4.80;;
75371;SDS011;63956;52.006;5.878;2022-11-20T04:05:28;13.55;;;10.00;;
75371;SDS011;63956;52.006;5.878;2022-11-20T04:08:00;11.98;;;7.78;;
75371;SDS011;63956;52.006;5.878;2022-11-20T04:10:29;11.82;;;6.55;;
75371;SDS011;63956;52.006;5.878;2022-11-20T04:12:58;10.00;;;6.07;;
75371;SDS011;63956;52.006;5.878;2022-11-20T04:15:27;11.77;;;7.32;;
75371;SDS011;63956;52.006;5.878;2022-11-20T04:17:57;14.57;;;9.50;;
75371;SDS011;63956;52.006;5.878;2022-11-20T04:20:26;15.55;;;9.48;;
75371;SDS011;63956;52.006;5.878;2022-11-20T04:22:55;9.15;;;5.82;;
75371;SDS011;63956;52.006;5.878;2022-11-20T04:25:27;13.77;;;6.55;;
75371;SDS011;63956;52.006;5.878;2022-11-20T04:27:56;11.98;;;7.97;;
75371;SDS011;63956;52.006;5.878;2022-11-20T04:30:25;9.45;;;6.25;;
75371;SDS011;63956;52.006;5.878;2022-11-20T04:32:54;11.77;;;7.55;;
75371;SDS011;63956;52.006;5.878;2022-11-20T04:35:23;12.95;;;7.75;;
75371;SDS011;63956;52.006;5.878;2022-11-20T04:37:52;8.00;;;2.78;;
75371;SDS011;63956;52.006;5.878;2022-11-20T04:40:21;12.88;;;9.73;;
75371;SDS011;63956;52.006;5.878;2022-11-20T04:42:53;10.32;;;4.15;;
75371;SDS011;63956;52.006;5.878;2022-11-20T04:45:22;13.00;;;6.70;;
75371;SDS011;63956;52.006;5.878;2022-11-20T04:47:52;11.40;;;7.68;;
75371;SDS011;63956;52.006;5.878;2022-11-20T04:52:50;9.20;;;3.83;;
75371;SDS011;63956;52.006;5.878;2022-11-20T04:55:19;11.73;;;7.15;;
75371;SDS011;63956;52.006;5.878;2022-11-20T04:57:49;10.73;;;6.82;;
75371;SDS011;63956;52.006;5.878;2022-11-20T05:00:21;13.10;;;7.47;;
75371;SDS011;63956;52.006;5.878;2022-11-20T05:02:50;12.15;;;6.75;;
75371;SDS011;63956;52.006;5.878;2022-11-20T05:05:19;12.68;;;8.18;;
75371;SDS011;63956;52.006;5.878;2022-11-20T05:07:48;13.00;;;7.90;;
75371;SDS011;63956;52.006;5.878;2022-11-20T05:10:18;12.85;;;8.40;;
75371;SDS011;63956;52.006;5.878;2022-11-20T05:12:47;10.38;;;6.03;;
75371;SDS011;63956;52.006;5.878;2022-11-20T05:15:16;13.63;;;8.07;;
75371;SDS011;63956;52.006;5.878;2022-11-20T05:17:49;12.25;;;8.02;;
75371;SDS011;63956;52.006;5.878;2022-11-20T05:20:19;14.63;;;9.35;;
75371;SDS011;63956;52.006;5.878;2022-11-20T05:25:17;12.13;;;8.07;;
75371;SDS011;63956;52.006;5.878;2022-11-20T05:27:46;11.45;;;7.45;;
75371;SDS011;63956;52.006;5.878;2022-11-20T05:30:15;11.77;;;4.97;;
75371;SDS011;63956;52.006;5.878;2022-11-20T05:32:45;8.60;;;5.15;;
75371;SDS011;63956;52.006;5.878;2022-11-20T05:35:16;12.05;;;8.45;;
75371;SDS011;63956;52.006;5.878;2022-11-20T05:37:45;12.68;;;8.30;;
75371;SDS011;63956;52.006;5.878;2022-11-20T05:40:14;9.23;;;5.55;;
75371;SDS011;63956;52.006;5.878;2022-11-20T05:42:44;11.95;;;6.93;;
75371;SDS011;63956;52.006;5.878;2022-11-20T05:45:13;11.43;;;7.75;;
75371;SDS011;63956;52.006;5.878;2022-11-20T05:47:42;12.70;;;7.57;;
75371;SDS011;63956;52.006;5.878;2022-11-20T05:50:11;14.15;;;8.50;;
75371;SDS011;63956;52.006;5.878;2022-11-20T05:52:43;12.82;;;7.40;;
75371;SDS011;63956;52.006;5.878;2022-11-20T05:55:13;9.93;;;4.30;;
75371;SDS011;63956;52.006;5.878;2022-11-20T05:57:42;11.88;;;8.32;;
75371;SDS011;63956;52.006;5.878;2022-11-20T06:00:11;13.40;;;9.35;;
75371;SDS011;63956;52.006;5.878;2022-11-20T06:02:41;10.73;;;7.20;;
75371;SDS011;63956;52.006;5.878;2022-11-20T06:05:11;9.60;;;5.65;;
75371;SDS011;63956;52.006;5.878;2022-11-20T06:07:40;11.38;;;7.60;;
75371;SDS011;63956;52.006;5.878;2022-11-20T06:10:11;13.32;;;7.72;;
75371;SDS011;63956;52.006;5.878;2022-11-20T06:12:40;13.85;;;8.18;;
75371;SDS011;63956;52.006;5.878;2022-11-20T06:15:09;9.77;;;6.93;;
75371;SDS011;63956;52.006;5.878;2022-11-20T06:17:39;12.45;;;8.32;;
75371;SDS011;63956;52.006;5.878;2022-11-20T06:20:08;11.25;;;6.65;;
75371;SDS011;63956;52.006;5.878;2022-11-20T06:22:38;12.07;;;8.05;;
75371;SDS011;63956;52.006;5.878;2022-11-20T06:25:07;10.40;;;6.88;;
75371;SDS011;63956;52.006;5.878;2022-11-20T06:27:39;13.00;;;8.25;;
75371;SDS011;63956;52.006;5.878;2022-11-20T06:30:09;10.77;;;6.35;;
75371;SDS011;63956;52.006;5.878;2022-11-20T06:32:39;10.00;;;7.00;;
75371;SDS011;63956;52.006;5.878;2022-11-20T06:35:08;13.43;;;8.55;;
75371;SDS011;63956;52.006;5.878;2022-11-20T06:37:38;10.48;;;3.83;;
75371;SDS011;63956;52.006;5.878;2022-11-20T06:40:08;11.43;;;7.30;;
75371;SDS011;63956;52.006;5.878;2022-11-20T06:42:40;6.88;;;4.53;;
75371;SDS011;63956;52.006;5.878;2022-11-20T06:45:09;13.88;;;7.63;;
75371;SDS011;63956;52.006;5.878;2022-11-20T06:47:38;8.35;;;5.03;;
75371;SDS011;63956;52.006;5.878;2022-11-20T06:50:08;14.00;;;8.25;;
75371;SDS011;63956;52.006;5.878;2022-11-20T06:52:37;10.82;;;7.03;;
75371;SDS011;63956;52.006;5.878;2022-11-20T06:55:07;10.40;;;6.75;;
75371;SDS011;63956;52.006;5.878;2022-11-20T06:57:39;13.48;;;8.75;;
75371;SDS011;63956;52.006;5.878;2022-11-20T07:00:09;10.93;;;4.43;;
75371;SDS011;63956;52.006;5.878;2022-11-20T07:02:39;11.15;;;6.97;;
75371;SDS011;63956;52.006;5.878;2022-11-20T07:05:08;11.55;;;8.32;;
75371;SDS011;63956;52.006;5.878;2022-11-20T07:07:37;12.02;;;7.38;;
75371;SDS011;63956;52.006;5.878;2022-11-20T07:10:07;12.18;;;6.80;;
75371;SDS011;63956;52.006;5.878;2022-11-20T07:12:40;14.02;;;8.80;;
75371;SDS011;63956;52.006;5.878;2022-11-20T07:15:09;12.27;;;6.15;;
75371;SDS011;63956;52.006;5.878;2022-11-20T07:17:38;13.43;;;8.20;;
75371;SDS011;63956;52.006;5.878;2022-11-20T07:20:08;14.82;;;8.13;;
75371;SDS011;63956;52.006;5.878;2022-11-20T07:22:38;13.07;;;8.80;;
75371;SDS011;63956;52.006;5.878;2022-11-20T07:25:08;18.48;;;9.85;;
75371;SDS011;63956;52.006;5.878;2022-11-20T07:27:40;15.45;;;8.82;;
75371;SDS011;63956;52.006;5.878;2022-11-20T07:30:10;19.20;;;11.82;;
75371;SDS011;63956;52.006;5.878;2022-11-20T07:32:40;13.32;;;7.43;;
75371;SDS011;63956;52.006;5.878;2022-11-20T07:35:09;16.63;;;11.05;;
75371;SDS011;63956;52.006;5.878;2022-11-20T07:37:38;15.45;;;9.20;;
75371;SDS011;63956;52.006;5.878;2022-11-20T07:40:07;11.40;;;6.70;;
75371;SDS011;63956;52.006;5.878;2022-11-20T07:42:41;14.55;;;9.23;;
75371;SDS011;63956;52.006;5.878;2022-11-20T07:45:15;15.77;;;9.60;;
75371;SDS011;63956;52.006;5.878;2022-11-20T07:47:44;12.65;;;7.07;;
75371;SDS011;63956;52.006;5.878;2022-11-20T07:50:14;10.13;;;6.35;;
75371;SDS011;63956;52.006;5.878;2022-11-20T07:52:43;17.45;;;10.90;;
75371;SDS011;63956;52.006;5.878;2022-11-20T07:55:13;21.15;;;12.32;;
75371;SDS011;63956;52.006;5.878;2022-11-20T08:00:14;13.27;;;7.45;;
75371;SDS011;63956;52.006;5.878;2022-11-20T08:02:43;14.15;;;9.10;;
75371;SDS011;63956;52.006;5.878;2022-11-20T08:05:13;16.05;;;10.43;;
75371;SDS011;63956;52.006;5.878;2022-11-20T08:07:42;20.88;;;11.43;;
75371;SDS011;63956;52.006;5.878;2022-11-20T08:10:12;11.20;;;6.97;;
75371;SDS011;63956;52.006;5.878;2022-11-20T08:12:48;15.88;;;9.40;;
75371;SDS011;63956;52.006;5.878;2022-11-20T08:15:31;16.85;;;8.27;;
75371;SDS011;63956;52.006;5.878;2022-11-20T08:18:01;13.90;;;8.57;;
75371;SDS011;63956;52.006;5.878;2022-11-20T08:20:32;16.88;;;9.65;;
75371;SDS011;63956;52.006;5.878;2022-11-20T08:23:02;13.13;;;5.90;;
75371;SDS011;63956;52.006;5.878;2022-11-20T08:25:32;12.18;;;4.90;;
75371;SDS011;63956;52.006;5.878;2022-11-20T08:28:05;13.57;;;7.75;;
75371;SDS011;63956;52.006;5.878;2022-11-20T08:30:36;17.80;;;9.70;;
75371;SDS011;63956;52.006;5.878;2022-11-20T08:35:35;17.83;;;8.63;;
75371;SDS011;63956;52.006;5.878;2022-11-20T08:38:06;14.98;;;7.97;;
75371;SDS011;63956;52.006;5.878;2022-11-20T08:40:37;22.17;;;14.10;;
75371;SDS011;63956;52.006;5.878;2022-11-20T08:43:09;13.95;;;8.27;;
75371;SDS011;63956;52.006;5.878;2022-11-20T08:45:38;21.98;;;12.88;;
75371;SDS011;63956;52.006;5.878;2022-11-20T08:48:07;22.10;;;12.45;;
75371;SDS011;63956;52.006;5.878;2022-11-20T08:50:36;18.63;;;11.15;;
75371;SDS011;63956;52.006;5.878;2022-11-20T08:53:05;16.02;;;9.93;;
75371;SDS011;63956;52.006;5.878;2022-11-20T08:55:34;18.08;;;9.68;;
75371;SDS011;63956;52.006;5.878;2022-11-20T08:58:05;20.17;;;13.10;;
75371;SDS011;63956;52.006;5.878;2022-11-20T09:00:37;17.13;;;10.25;;
75371;SDS011;63956;52.006;5.878;2022-11-20T09:03:06;24.15;;;13.82;;
75371;SDS011;63956;52.006;5.878;2022-11-20T09:05:35;21.73;;;13.93;;
75371;SDS011;63956;52.006;5.878;2022-11-20T09:08:04;16.73;;;6.82;;
75371;SDS011;63956;52.006;5.878;2022-11-20T09:10:33;16.80;;;9.05;;
75371;SDS011;63956;52.006;5.878;2022-11-20T09:13:05;18.63;;;11.55;;
75371;SDS011;63956;52.006;5.878;2022-11-20T09:15:37;19.30;;;12.82;;
75371;SDS011;63956;52.006;5.878;2022-11-20T09:18:06;21.40;;;12.75;;
75371;SDS011;63956;52.006;5.878;2022-11-20T09:20:35;21.90;;;13.82;;
75371;SDS011;63956;52.006;5.878;2022-11-20T09:23:04;19.58;;;11.95;;
75371;SDS011;63956;52.006;5.878;2022-11-20T09:25:33;19.45;;;11.07;;
75371;SDS011;63956;52.006;5.878;2022-11-20T09:28:02;20.00;;;12.88;;
75371;SDS011;63956;52.006;5.878;2022-11-20T09:30:31;19.88;;;9.43;;
75371;SDS011;63956;52.006;5.878;2022-11-20T09:33:03;14.68;;;8.20;;
75371;SDS011;63956;52.006;5.878;2022-11-20T09:35:32;13.63;;;8.60;;
75371;SDS011;63956;52.006;5.878;2022-11-20T09:38:04;14.35;;;9.88;;
75371;SDS011;63956;52.006;5.878;2022-11-20T09:40:34;14.88;;;9.07;;
75371;SDS011;63956;52.006;5.878;2022-11-20T09:43:07;17.75;;;10.45;;
75371;SDS011;63956;52.006;5.878;2022-11-20T09:45:47;15.50;;;8.95;;
75371;SDS011;63956;52.006;5.878;2022-11-20T09:48:29;17.98;;;10.98;;
75371;SDS011;63956;52.006;5.878;2022-11-20T09:51:09;16.80;;;10.73;;
75371;SDS011;63956;52.006;5.878;2022-11-20T09:56:17;20.40;;;12.50;;
75371;SDS011;63956;52.006;5.878;2022-11-20T09:58:49;17.42;;;10.30;;
75371;SDS011;63956;52.006;5.878;2022-11-20T10:01:21;15.88;;;10.43;;
75371;SDS011;63956;52.006;5.878;2022-11-20T10:03:58;18.02;;;11.95;;
75371;SDS011;63956;52.006;5.878;2022-11-20T10:06:31;18.17;;;11.55;;
75371;SDS011;63956;52.006;5.878;2022-11-20T10:09:04;15.88;;;6.63;;
75371;SDS011;63956;52.006;5.878;2022-11-20T10:11:45;15.60;;;7.30;;
75371;SDS011;63956;52.006;5.878;2022-11-20T10:14:23;15.23;;;10.30;;
75371;SDS011;63956;52.006;5.878;2022-11-20T10:17:01;16.90;;;10.48;;
75371;SDS011;63956;52.006;5.878;2022-11-20T10:19:43;10.70;;;8.13;;
75371;SDS011;63956;52.006;5.878;2022-11-20T10:22:24;17.45;;;10.25;;
75371;SDS011;63956;52.006;5.878;2022-11-20T10:25:01;16.08;;;9.65;;
75371;SDS011;63956;52.006;5.878;2022-11-20T10:30:40;10.88;;;7.10;;
75371;SDS011;63956;52.006;5.878;2022-11-20T10:33:13;21.23;;;10.68;;
75371;SDS011;63956;52.006;5.878;2022-11-20T10:35:49;17.30;;;9.57;;
75371;SDS011;63956;52.006;5.878;2022-11-20T10:38:21;22.38;;;14.10;;
75371;SDS011;63956;52.006;5.878;2022-11-20T10:40:56;17.77;;;10.80;;
75371;SDS011;63956;52.006;5.878;2022-11-20T10:43:50;18.75;;;11.82;;
75371;SDS011;63956;52.006;5.878;2022-11-20T10:46:22;19.80;;;10.52;;
75371;SDS011;63956;52.006;5.878;2022-11-20T10:48:53;13.95;;;8.43;;
75371;SDS011;63956;52.006;5.878;2022-11-20T10:51:30;18.67;;;11.18;;
75371;SDS011;63956;52.006;5.878;2022-11-20T10:54:07;20.55;;;12.13;;
75371;SDS011;63956;52.006;5.878;2022-11-20T10:56:46;14.10;;;8.05;;
75371;SDS011;63956;52.006;5.878;2022-11-20T11:02:17;15.70;;;10.25;;
75371;SDS011;63956;52.006;5.878;2022-11-20T11:04:49;18.70;;;10.50;;
75371;SDS011;63956;52.006;5.878;2022-11-20T11:07:23;17.40;;;11.00;;
75371;SDS011;63956;52.006;5.878;2022-11-20T11:09:55;14.93;;;9.35;;
75371;SDS011;63956;52.006;5.878;2022-11-20T11:12:25;18.52;;;10.90;;
75371;SDS011;63956;52.006;5.878;2022-11-20T11:14:56;15.63;;;9.85;;
75371;SDS011;63956;52.006;5.878;2022-11-20T11:17:27;19.35;;;11.80;;
75371;SDS011;63956;52.006;5.878;2022-11-20T11:20:00;19.80;;;11.93;;
75371;SDS011;63956;52.006;5.878;2022-11-20T11:22:42;18.65;;;11.98;;
75371;SDS011;63956;52.006;5.878;2022-11-20T11:25:20;22.70;;;13.40;;
75371;SDS011;63956;52.006;5.878;2022-11-20T11:27:52;23.13;;;12.07;;
75371;SDS011;63956;52.006;5.878;2022-11-20T11:30:23;18.10;;;11.38;;
75371;SDS011;63956;52.006;5.878;2022-11-20T11:33:03;18.08;;;10.82;;
75371;SDS011;63956;52.006;5.878;2022-11-20T11:35:38;21.52;;;13.25;;
75371;SDS011;63956;52.006;5.878;2022-11-20T11:38:17;16.45;;;9.93;;
75371;SDS011;63956;52.006;5.878;2022-11-20T11:40:52;20.27;;;12.90;;
75371;SDS011;63956;52.006;5.878;2022-11-20T11:43:23;22.00;;;13.35;;
75371;SDS011;63956;52.006;5.878;2022-11-20T11:46:08;24.50;;;13.50;;
75371;SDS011;63956;52.006;5.878;2022-11-20T11:48:56;19.45;;;11.90;;
75371;SDS011;63956;52.006;5.878;2022-11-20T11:51:28;21.30;;;13.35;;
75371;SDS011;63956;52.006;5.878;2022-11-20T11:54:05;17.10;;;7.38;;
75371;SDS011;63956;52.006;5.878;2022-11-20T11:56:44;19.48;;;11.68;;
75371;SDS011;63956;52.006;5.878;2022-11-20T11:59:15;17.10;;;10.27;;
75371;SDS011;63956;52.006;5.878;2022-11-20T12:01:55;21.27;;;13.88;;
75371;SDS011;63956;52.006;5.878;2022-11-20T12:04:37;20.30;;;13.20;;
75371;SDS011;63956;52.006;5.878;2022-11-20T12:07:13;16.25;;;10.13;;
75371;SDS011;63956;52.006;5.878;2022-11-20T12:09:53;20.77;;;11.80;;
75371;SDS011;63956;52.006;5.878;2022-11-20T12:12:27;16.63;;;9.98;;
75371;SDS011;63956;52.006;5.878;2022-11-20T12:15:01;21.90;;;12.48;;
75371;SDS011;63956;52.006;5.878;2022-11-20T12:17:32;17.30;;;10.52;;
75371;SDS011;63956;52.006;5.878;2022-11-20T12:20:02;22.63;;;13.00;;
75371;SDS011;63956;52.006;5.878;2022-11-20T12:22:32;21.15;;;13.15;;
75371;SDS011;63956;52.006;5.878;2022-11-20T12:25:14;22.25;;;12.32;;
75371;SDS011;63956;52.006;5.878;2022-11-20T12:28:02;14.98;;;8.52;;
75371;SDS011;63956;52.006;5.878;2022-11-20T12:36:09;17.75;;;12.63;;
75371;SDS011;63956;52.006;5.878;2022-11-20T12:38:51;20.75;;;13.15;;
75371;SDS011;63956;52.006;5.878;2022-11-20T12:41:54;13.10;;;8.52;;
75371;SDS011;63956;52.006;5.878;2022-11-20T12:45:10;18.27;;;11.50;;
75371;SDS011;63956;52.006;5.878;2022-11-20T12:48:09;11.48;;;8.00;;
75371;SDS011;63956;52.006;5.878;2022-11-20T12:50:53;21.55;;;15.20;;
75371;SDS011;63956;52.006;5.878;2022-11-20T12:53:36;15.75;;;10.70;;
75371;SDS011;63956;52.006;5.878;2022-11-20T12:56:16;18.38;;;13.13;;
75371;SDS011;63956;52.006;5.878;2022-11-20T12:58:58;13.65;;;9.63;;
75371;SDS011;63956;52.006;5.878;2022-11-20T13:01:37;22.65;;;14.73;;
75371;SDS011;63956;52.006;5.878;2022-11-20T13:04:18;10.75;;;6.93;;
75371;SDS011;63956;52.006;5.878;2022-11-20T13:06:59;19.63;;;14.52;;
75371;SDS011;63956;52.006;5.878;2022-11-20T13:09:30;21.73;;;13.65;;
75371;SDS011;63956;52.006;5.878;2022-11-20T13:12:04;22.27;;;15.95;;
75371;SDS011;63956;52.006;5.878;2022-11-20T13:14:41;15.70;;;9.75;;
75371;SDS011;63956;52.006;5.878;2022-11-20T13:17:16;26.20;;;14.73;;
75371;SDS011;63956;52.006;5.878;2022-11-20T13:19:52;18.60;;;12.13;;
75371;SDS011;63956;52.006;5.878;2022-11-20T13:22:24;15.82;;;10.50;;
75371;SDS011;63956;52.006;5.878;2022-11-20T13:24:54;12.18;;;7.63;;
75371;SDS011;63956;52.006;5.878;2022-11-20T13:27:23;23.88;;;14.60;;
75371;SDS011;63956;52.006;5.878;2022-11-20T13:30:10;22.27;;;14.18;;
75371;SDS011;63956;52.006;5.878;2022-11-20T13:32:53;20.30;;;13.88;;
75371;SDS011;63956;52.006;5.878;2022-11-20T13:35:26;23.83;;;14.85;;
75371;SDS011;63956;52.006;5.878;2022-11-20T13:40:50;21.75;;;13.80;;
75371;SDS011;63956;52.006;5.878;2022-11-20T13:43:22;20.80;;;12.13;;
75371;SDS011;63956;52.006;5.878;2022-11-20T13:46:00;19.50;;;12.77;;
75371;SDS011;63956;52.006;5.878;2022-11-20T13:48:31;25.05;;;13.65;;
75371;SDS011;63956;52.006;5.878;2022-11-20T13:51:04;14.43;;;6.63;;
75371;SDS011;63956;52.006;5.878;2022-11-20T13:56:54;23.25;;;14.73;;
75371;SDS011;63956;52.006;5.878;2022-11-20T13:59:38;17.55;;;9.75;;
75371;SDS011;63956;52.006;5.878;2022-11-20T14:04:48;25.42;;;15.10;;
75371;SDS011;63956;52.006;5.878;2022-11-20T14:07:20;23.52;;;14.15;;
75371;SDS011;63956;52.006;5.878;2022-11-20T14:09:53;25.38;;;15.70;;
75371;SDS011;63956;52.006;5.878;2022-11-20T14:12:27;23.20;;;14.40;;
75371;SDS011;63956;52.006;5.878;2022-11-20T14:14:58;23.05;;;13.48;;
75371;SDS011;63956;52.006;5.878;2022-11-20T14:17:32;26.85;;;14.88;;
75371;SDS011;63956;52.006;5.878;2022-11-20T14:20:04;31.17;;;16.52;;
75371;SDS011;63956;52.006;5.878;2022-11-20T14:22:36;25.70;;;16.15;;
75371;SDS011;63956;52.006;5.878;2022-11-20T14:25:06;23.75;;;14.35;;
75371;SDS011;63956;52.006;5.878;2022-11-20T14:27:47;22.63;;;12.75;;
75371;SDS011;63956;52.006;5.878;2022-11-20T14:30:21;23.58;;;13.40;;
75371;SDS011;63956;52.006;5.878;2022-11-20T14:32:55;29.63;;;18.45;;
75371;SDS011;63956;52.006;5.878;2022-11-20T14:35:29;27.63;;;15.98;;
75371;SDS011;63956;52.006;5.878;2022-11-20T14:38:00;25.48;;;15.70;;
75371;SDS011;63956;52.006;5.878;2022-11-20T14:40:31;24.73;;;14.63;;
75371;SDS011;63956;52.006;5.878;2022-11-20T14:43:01;21.92;;;13.77;;
75371;SDS011;63956;52.006;5.878;2022-11-20T14:45:44;26.83;;;16.42;;
75371;SDS011;63956;52.006;5.878;2022-11-20T14:48:19;30.08;;;18.80;;
75371;SDS011;63956;52.006;5.878;2022-11-20T14:50:52;31.63;;;18.48;;
75371;SDS011;63956;52.006;5.878;2022-11-20T14:53:22;17.00;;;10.63;;
75371;SDS011;63956;52.006;5.878;2022-11-20T14:55:56;30.23;;;17.98;;
75371;SDS011;63956;52.006;5.878;2022-11-20T14:58:27;23.55;;;15.10;;
75371;SDS011;63956;52.006;5.878;2022-11-20T15:00:58;28.88;;;16.88;;
75371;SDS011;63956;52.006;5.878;2022-11-20T15:03:34;24.67;;;13.20;;
75371;SDS011;63956;52.006;5.878;2022-11-20T15:06:05;22.95;;;13.93;;
75371;SDS011;63956;52.006;5.878;2022-11-20T15:08:36;19.23;;;10.02;;
75371;SDS011;63956;52.006;5.878;2022-11-20T15:11:14;27.00;;;16.60;;
75371;SDS011;63956;52.006;5.878;2022-11-20T15:13:46;24.13;;;14.73;;
75371;SDS011;63956;52.006;5.878;2022-11-20T15:16:16;21.80;;;14.05;;
75371;SDS011;63956;52.006;5.878;2022-11-20T15:18:50;26.98;;;16.88;;
75371;SDS011;63956;52.006;5.878;2022-11-20T15:21:19;26.48;;;15.82;;
75371;SDS011;63956;52.006;5.878;2022-11-20T15:23:49;21.90;;;13.25;;
75371;SDS011;63956;52.006;5.878;2022-11-20T15:26:20;28.08;;;15.02;;
75371;SDS011;63956;52.006;5.878;2022-11-20T15:28:56;21.38;;;11.98;;
75371;SDS011;63956;52.006;5.878;2022-11-20T15:31:25;19.60;;;11.73;;
75371;SDS011;63956;52.006;5.878;2022-11-20T15:36:25;25.25;;;14.98;;
75371;SDS011;63956;52.006;5.878;2022-11-20T15:38:55;28.90;;;16.83;;
75371;SDS011;63956;52.006;5.878;2022-11-20T15:41:24;25.33;;;15.88;;
75371;SDS011;63956;52.006;5.878;2022-11-20T15:43:53;28.42;;;15.82;;